AirNav   Everest Fuels
 
 1769 users online  

E48 Upton County Airport
Mc Camey, Texas, USA

GOING TO MC CAMEY?


FAA INFORMATION EFFECTIVE 11 AUGUST 2022

Location

FAA Identifier: E48
Lat/Long: 31-07-30.5340N 102-13-31.4940W
31-07.508900N 102-13.524900W
31.1251483,-102.2254150
(estimated)
Elevation: 2433 ft. / 741.6 m (surveyed)
Variation: 09E (1985)
From city: 1 mile SW of MC CAMEY, TX
Time zone: UTC -5 (UTC -6 during Standard Time)
Zip code: 79752

Airport Operations

Airport use: Open to the public
Activation date: 04/1941
Control tower: no
ARTCC: ALBUQUERQUE CENTER
FSS: SAN ANGELO FLIGHT SERVICE STATION
NOTAMs facility: SJT (NOTAM-D service available)
Attendance: UNATNDD
Wind indicator: lighted
Segmented circle: yes
Lights: SS-SR
Beacon: white-green (lighted land airport)
Operates sunset to sunrise.

Airport Communications

CTAF: 122.9

Nearby radio navigation aids

VOR radial/distance  VOR name  Freq  Var
FSTr064/39.9FORT STOCKTON VORTAC116.9011E

Airport Services

Parking: tiedowns
Bottled oxygen: NONE
Bulk oxygen: NONE

Runway Information

Runway 10/28

Dimensions: 4100 x 75 ft. / 1250 x 23 m
Surface: asphalt, in excellent condition
Weight bearing capacity: 
Single wheel: 30.0
Runway edge lights: medium intensity
MIRL RWY 10/28 PRESET TO LOW, TO INCR INTST - CTAF.
RUNWAY 10  RUNWAY 28
Traffic pattern: rightleft
Markings: basic, in good conditionbasic, in good condition
Visual slope indicator: 2-light PAPI on left2-light PAPI on left
Obstructions: 24 ft. pline, 1006 ft. from runway, 120 ft. left of centerline, 33:1 slope to clear25 ft. trees, 595 ft. from runway, 90 ft. right of centerline, 15:1 slope to clear

Airport Ownership and Management from official FAA records

Ownership: Publicly-owned
Owner: UPTON COUNTY
CO COURT HOUSE/PO BOX 482
RANKIN, TX 79778
Phone 432-693-2321
Manager: BOB MARTIN
UPTON COUNTY AIRPORT (E48)
MC CAMEY, TX 79752
Phone 432-413-8589

Airport Operational Statistics

Aircraft based on the field: 1
Single engine airplanes: 1
    
Aircraft operations: avg 26/month *
68% local general aviation
32% transient general aviation
* for 12-month period ending 19 May 2021

Additional Remarks

FOR CD CTC ALBUQUERQUE ARTCC AT 505-856-4861.

Instrument Procedures

There are no published instrument procedures at E48.

Some nearby airports with instrument procedures:

KFST - Fort Stockton-Pecos County Airport (38 nm W)
E41 - Reagan County Airport (39 nm E)
E01 - Roy Hurd Memorial Airport (44 nm NW)
KODO - Odessa Airport-Schlemeyer Field (48 nm N)
KMAF - Midland International Air and Space Port Airport (49 nm N)
 
Loc | Ops | Rwys | IFR | FBO | Links
Com | Nav | Svcs | Stats | Notes

Chandler Aviation LLC
 
Area around E48 (Upton County Airport)
 
Road maps at: MapQuest Bing Google
 
Aerial photo
WARNING: Photo may not be current or correct
Aerial photo of E48 (Upton County Airport)
Photo by Bill Darby
Photo taken 28-Nov-2014
looking northwest.

Do you have a better or more recent aerial photo of Upton County Airport that you would like to share? If so, please send us your photo.

 
Sectional chart

 
Airport distance calculator
Flying to Upton County Airport? Find the distance to fly.

From to E48

Sunrise and sunset
Times for 16-Aug-2022
 Local
(UTC-5)
 Zulu
(UTC)
Morning civil twilight06:5111:51
Sunrise07:1612:16
Sunset20:3001:30
Evening civil twilight20:5501:55

Current date and time
Zulu (UTC)  16-Aug-2022 14:36:09
Local (UTC-5)  16-Aug-2022 09:36:09
 
METAR
KFST 
38nm W 
161406Z AUTO 11008KT 3SM RA BR SCT050 BKN070 OVC110 19/19 A3001 RMK AO2 P0005 T01940189
KE41 
39nm E 
161415Z AUTO 15010KT 10SM CLR 23/19 A3005 RMK AO2 T02350189
KODO 
48nm N 
161353Z AUTO 11006KT 10SM CLR 24/18 A3007 RMK AO2 SLP133 T02390178
KMAF 
50nm N 
161353Z 11009KT 7SM CLR 23/18 A3006 RMK AO2 SLP131 T02330178
TAF
KFST 
38nm W 
161410Z 1614/1712 10010KT 4SM TSRA BR SCT007 BKN035 BKN050CB TEMPO 1614/1616 2SM +RA BKN015 FM161800 12017G23KT P6SM -SHRA OVC007 FM162100 12017G24KT P6SM -SHRA OVC025 FM170000 13010KT P6SM OVC170
NOTAMs
Click for the latest NOTAMs
NOTAMs are issued by the DoD/FAA and will open in a separate window not controlled by AirNav.

 

 
 

Would you like to see your business listed on this page?

 If your business provides an interesting product or service to pilots, flight crews, aircraft, or users of the Upton County Airport, you should consider listing it here.  To start the listing process, click on the button below
 
Add a business
 

Other Pages about Upton County Airport

Update a link
 
Copyright © AirNav, LLC. All rights reserved. Privacy Policy  Contact